sensor_id;sensor_type;location;lat;lon;timestamp;P1;durP1;ratioP1;P2;durP2;ratioP2
31224;SDS011;17847;31.524;74.366;2023-11-21T00:00:16;124.30;;;78.97;;
31224;SDS011;17847;31.524;74.366;2023-11-21T00:02:46;115.80;;;77.40;;
31224;SDS011;17847;31.524;74.366;2023-11-21T00:05:16;114.60;;;77.65;;
31224;SDS011;17847;31.524;74.366;2023-11-21T00:07:45;116.03;;;79.28;;
31224;SDS011;17847;31.524;74.366;2023-11-21T00:10:15;121.45;;;80.00;;
31224;SDS011;17847;31.524;74.366;2023-11-21T00:12:44;127.03;;;81.20;;
31224;SDS011;17847;31.524;74.366;2023-11-21T00:15:16;117.93;;;81.90;;
31224;SDS011;17847;31.524;74.366;2023-11-21T00:17:47;116.53;;;79.45;;
31224;SDS011;17847;31.524;74.366;2023-11-21T00:20:16;118.72;;;81.68;;
31224;SDS011;17847;31.524;74.366;2023-11-21T00:22:46;115.00;;;80.93;;
31224;SDS011;17847;31.524;74.366;2023-11-21T00:25:16;117.07;;;80.82;;
31224;SDS011;17847;31.524;74.366;2023-11-21T00:27:46;127.45;;;85.63;;
31224;SDS011;17847;31.524;74.366;2023-11-21T00:30:15;123.10;;;81.80;;
31224;SDS011;17847;31.524;74.366;2023-11-21T00:32:45;122.25;;;83.75;;
31224;SDS011;17847;31.524;74.366;2023-11-21T00:35:14;123.15;;;84.35;;
31224;SDS011;17847;31.524;74.366;2023-11-21T00:37:44;125.60;;;83.43;;
31224;SDS011;17847;31.524;74.366;2023-11-21T00:40:13;126.63;;;85.53;;
31224;SDS011;17847;31.524;74.366;2023-11-21T00:42:43;126.15;;;85.40;;
31224;SDS011;17847;31.524;74.366;2023-11-21T00:45:13;128.85;;;84.70;;
31224;SDS011;17847;31.524;74.366;2023-11-21T00:47:44;128.18;;;84.75;;
31224;SDS011;17847;31.524;74.366;2023-11-21T00:50:14;128.05;;;84.65;;
31224;SDS011;17847;31.524;74.366;2023-11-21T00:52:44;128.45;;;88.55;;
31224;SDS011;17847;31.524;74.366;2023-11-21T00:55:13;139.25;;;88.72;;
31224;SDS011;17847;31.524;74.366;2023-11-21T00:57:43;138.82;;;92.00;;
31224;SDS011;17847;31.524;74.366;2023-11-21T01:00:12;139.23;;;95.10;;
31224;SDS011;17847;31.524;74.366;2023-11-21T01:02:45;141.25;;;90.55;;
31224;SDS011;17847;31.524;74.366;2023-11-21T01:05:17;136.82;;;90.03;;
31224;SDS011;17847;31.524;74.366;2023-11-21T01:07:46;134.90;;;91.07;;
31224;SDS011;17847;31.524;74.366;2023-11-21T01:10:17;138.35;;;90.10;;
31224;SDS011;17847;31.524;74.366;2023-11-21T01:12:46;137.40;;;88.80;;
31224;SDS011;17847;31.524;74.366;2023-11-21T01:15:17;135.73;;;89.93;;
31224;SDS011;17847;31.524;74.366;2023-11-21T01:17:47;136.35;;;89.35;;
31224;SDS011;17847;31.524;74.366;2023-11-21T01:20:16;136.27;;;91.28;;
31224;SDS011;17847;31.524;74.366;2023-11-21T01:22:46;140.70;;;92.28;;
31224;SDS011;17847;31.524;74.366;2023-11-21T01:25:17;134.73;;;90.57;;
31224;SDS011;17847;31.524;74.366;2023-11-21T01:27:48;138.50;;;92.65;;
31224;SDS011;17847;31.524;74.366;2023-11-21T01:30:18;143.57;;;93.97;;
31224;SDS011;17847;31.524;74.366;2023-11-21T01:32:48;145.00;;;96.20;;
31224;SDS011;17847;31.524;74.366;2023-11-21T01:35:17;144.65;;;97.40;;
31224;SDS011;17847;31.524;74.366;2023-11-21T01:37:47;152.68;;;98.70;;
31224;SDS011;17847;31.524;74.366;2023-11-21T01:40:17;162.75;;;100.82;;
31224;SDS011;17847;31.524;74.366;2023-11-21T01:42:47;152.15;;;96.60;;
31224;SDS011;17847;31.524;74.366;2023-11-21T01:45:16;147.35;;;101.70;;
31224;SDS011;17847;31.524;74.366;2023-11-21T01:47:46;158.80;;;102.28;;
31224;SDS011;17847;31.524;74.366;2023-11-21T01:50:16;155.63;;;101.43;;
31224;SDS011;17847;31.524;74.366;2023-11-21T01:52:47;160.70;;;102.80;;
31224;SDS011;17847;31.524;74.366;2023-11-21T01:55:17;154.63;;;103.18;;
31224;SDS011;17847;31.524;74.366;2023-11-21T01:57:57;166.73;;;103.78;;
31224;SDS011;17847;31.524;74.366;2023-11-21T02:00:27;162.65;;;104.30;;
31224;SDS011;17847;31.524;74.366;2023-11-21T02:02:56;165.82;;;107.03;;
31224;SDS011;17847;31.524;74.366;2023-11-21T02:05:27;170.77;;;109.75;;
31224;SDS011;17847;31.524;74.366;2023-11-21T02:07:58;170.70;;;110.32;;
31224;SDS011;17847;31.524;74.366;2023-11-21T02:10:28;176.60;;;111.00;;
31224;SDS011;17847;31.524;74.366;2023-11-21T02:12:59;173.93;;;108.50;;
31224;SDS011;17847;31.524;74.366;2023-11-21T02:15:31;170.65;;;108.30;;
31224;SDS011;17847;31.524;74.366;2023-11-21T02:18:00;173.68;;;110.93;;
31224;SDS011;17847;31.524;74.366;2023-11-21T02:20:31;170.07;;;109.47;;
31224;SDS011;17847;31.524;74.366;2023-11-21T02:23:03;163.32;;;107.10;;
31224;SDS011;17847;31.524;74.366;2023-11-21T02:25:33;189.80;;;113.35;;
31224;SDS011;17847;31.524;74.366;2023-11-21T02:28:05;171.63;;;112.63;;
31224;SDS011;17847;31.524;74.366;2023-11-21T02:30:35;177.43;;;112.10;;
31224;SDS011;17847;31.524;74.366;2023-11-21T02:33:05;175.00;;;112.45;;
31224;SDS011;17847;31.524;74.366;2023-11-21T02:35:35;179.43;;;110.88;;
31224;SDS011;17847;31.524;74.366;2023-11-21T02:38:06;173.90;;;112.10;;
31224;SDS011;17847;31.524;74.366;2023-11-21T02:40:35;178.75;;;113.82;;
31224;SDS011;17847;31.524;74.366;2023-11-21T02:43:05;184.57;;;115.93;;
31224;SDS011;17847;31.524;74.366;2023-11-21T02:45:34;185.05;;;114.18;;
31224;SDS011;17847;31.524;74.366;2023-11-21T02:48:03;188.75;;;117.05;;
31224;SDS011;17847;31.524;74.366;2023-11-21T02:50:35;189.40;;;118.45;;
31224;SDS011;17847;31.524;74.366;2023-11-21T02:53:04;192.68;;;119.03;;
31224;SDS011;17847;31.524;74.366;2023-11-21T02:55:36;185.90;;;117.45;;
31224;SDS011;17847;31.524;74.366;2023-11-21T02:58:06;190.25;;;122.28;;
31224;SDS011;17847;31.524;74.366;2023-11-21T03:00:35;192.35;;;117.80;;
31224;SDS011;17847;31.524;74.366;2023-11-21T03:03:04;195.40;;;119.72;;
31224;SDS011;17847;31.524;74.366;2023-11-21T03:05:34;181.05;;;116.15;;
31224;SDS011;17847;31.524;74.366;2023-11-21T03:08:06;192.43;;;121.95;;
31224;SDS011;17847;31.524;74.366;2023-11-21T03:10:36;197.93;;;124.18;;
31224;SDS011;17847;31.524;74.366;2023-11-21T03:13:06;198.98;;;124.45;;
31224;SDS011;17847;31.524;74.366;2023-11-21T03:15:36;206.93;;;127.40;;
31224;SDS011;17847;31.524;74.366;2023-11-21T03:18:06;202.68;;;127.22;;
31224;SDS011;17847;31.524;74.366;2023-11-21T03:20:36;194.68;;;125.28;;
31224;SDS011;17847;31.524;74.366;2023-11-21T03:23:06;181.85;;;120.75;;
31224;SDS011;17847;31.524;74.366;2023-11-21T03:25:35;187.10;;;121.88;;
31224;SDS011;17847;31.524;74.366;2023-11-21T03:28:05;196.63;;;124.82;;
31224;SDS011;17847;31.524;74.366;2023-11-21T03:30:36;189.30;;;121.72;;
31224;SDS011;17847;31.524;74.366;2023-11-21T03:33:06;187.40;;;121.38;;
31224;SDS011;17847;31.524;74.366;2023-11-21T03:35:36;182.07;;;117.13;;
31224;SDS011;17847;31.524;74.366;2023-11-21T03:38:05;180.45;;;116.68;;
31224;SDS011;17847;31.524;74.366;2023-11-21T03:40:35;184.98;;;117.63;;
31224;SDS011;17847;31.524;74.366;2023-11-21T03:43:05;186.13;;;118.43;;
31224;SDS011;17847;31.524;74.366;2023-11-21T03:45:34;177.27;;;113.85;;
31224;SDS011;17847;31.524;74.366;2023-11-21T03:48:04;180.70;;;116.68;;
31224;SDS011;17847;31.524;74.366;2023-11-21T03:50:36;167.80;;;112.78;;
31224;SDS011;17847;31.524;74.366;2023-11-21T03:53:07;180.00;;;112.22;;
31224;SDS011;17847;31.524;74.366;2023-11-21T03:55:36;164.48;;;108.35;;
31224;SDS011;17847;31.524;74.366;2023-11-21T03:58:06;174.90;;;110.22;;
31224;SDS011;17847;31.524;74.366;2023-11-21T04:00:35;167.98;;;107.65;;
31224;SDS011;17847;31.524;74.366;2023-11-21T04:03:05;168.00;;;107.50;;
31224;SDS011;17847;31.524;74.366;2023-11-21T04:05:34;169.25;;;104.43;;
31224;SDS011;17847;31.524;74.366;2023-11-21T04:08:04;161.02;;;105.75;;
31224;SDS011;17847;31.524;74.366;2023-11-21T04:10:33;154.80;;;103.00;;
31224;SDS011;17847;31.524;74.366;2023-11-21T04:13:03;153.90;;;99.88;;
31224;SDS011;17847;31.524;74.366;2023-11-21T04:15:33;146.10;;;95.95;;
31224;SDS011;17847;31.524;74.366;2023-11-21T04:18:03;143.93;;;94.13;;
31224;SDS011;17847;31.524;74.366;2023-11-21T04:20:32;131.77;;;89.28;;
31224;SDS011;17847;31.524;74.366;2023-11-21T04:23:01;141.18;;;91.95;;
31224;SDS011;17847;31.524;74.366;2023-11-21T04:25:32;131.45;;;88.97;;
31224;SDS011;17847;31.524;74.366;2023-11-21T04:28:02;135.00;;;89.65;;
31224;SDS011;17847;31.524;74.366;2023-11-21T04:30:32;149.68;;;91.47;;
31224;SDS011;17847;31.524;74.366;2023-11-21T04:33:02;137.35;;;88.53;;
31224;SDS011;17847;31.524;74.366;2023-11-21T04:35:31;122.50;;;81.55;;
31224;SDS011;17847;31.524;74.366;2023-11-21T04:38:00;123.30;;;78.45;;
31224;SDS011;17847;31.524;74.366;2023-11-21T04:40:31;112.70;;;73.38;;
31224;SDS011;17847;31.524;74.366;2023-11-21T04:43:00;93.85;;;66.07;;
31224;SDS011;17847;31.524;74.366;2023-11-21T04:45:30;84.00;;;56.80;;
31224;SDS011;17847;31.524;74.366;2023-11-21T04:47:59;86.82;;;56.30;;
31224;SDS011;17847;31.524;74.366;2023-11-21T04:50:29;96.40;;;68.20;;
31224;SDS011;17847;31.524;74.366;2023-11-21T04:52:58;98.82;;;65.93;;
31224;SDS011;17847;31.524;74.366;2023-11-21T04:55:28;75.38;;;50.70;;
31224;SDS011;17847;31.524;74.366;2023-11-21T04:57:57;88.07;;;62.10;;
31224;SDS011;17847;31.524;74.366;2023-11-21T05:00:26;81.15;;;57.05;;
31224;SDS011;17847;31.524;74.366;2023-11-21T05:02:56;73.82;;;49.10;;
31224;SDS011;17847;31.524;74.366;2023-11-21T05:05:25;82.97;;;60.67;;
31224;SDS011;17847;31.524;74.366;2023-11-21T05:07:55;81.30;;;58.70;;
31224;SDS011;17847;31.524;74.366;2023-11-21T05:10:25;82.10;;;54.15;;
31224;SDS011;17847;31.524;74.366;2023-11-21T05:12:54;78.20;;;56.33;;
31224;SDS011;17847;31.524;74.366;2023-11-21T05:15:23;146.50;;;65.03;;
31224;SDS011;17847;31.524;74.366;2023-11-21T05:17:53;88.45;;;59.38;;
31224;SDS011;17847;31.524;74.366;2023-11-21T05:22:55;78.55;;;55.85;;
31224;SDS011;17847;31.524;74.366;2023-11-21T05:25:27;79.18;;;54.17;;
31224;SDS011;17847;31.524;74.366;2023-11-21T05:27:56;88.07;;;55.28;;
31224;SDS011;17847;31.524;74.366;2023-11-21T05:30:29;71.38;;;52.83;;
31224;SDS011;17847;31.524;74.366;2023-11-21T05:32:58;82.70;;;55.30;;
31224;SDS011;17847;31.524;74.366;2023-11-21T05:35:28;75.80;;;54.83;;
31224;SDS011;17847;31.524;74.366;2023-11-21T05:37:57;79.28;;;54.83;;
31224;SDS011;17847;31.524;74.366;2023-11-21T05:40:26;79.78;;;56.22;;
31224;SDS011;17847;31.524;74.366;2023-11-21T05:42:58;87.28;;;56.70;;
31224;SDS011;17847;31.524;74.366;2023-11-21T05:45:27;79.47;;;55.70;;
31224;SDS011;17847;31.524;74.366;2023-11-21T05:47:58;79.72;;;56.33;;
31224;SDS011;17847;31.524;74.366;2023-11-21T05:50:27;90.65;;;58.13;;
31224;SDS011;17847;31.524;74.366;2023-11-21T05:52:57;78.30;;;54.60;;
31224;SDS011;17847;31.524;74.366;2023-11-21T05:55:29;73.13;;;55.38;;
31224;SDS011;17847;31.524;74.366;2023-11-21T05:57:59;80.80;;;56.58;;
31224;SDS011;17847;31.524;74.366;2023-11-21T06:00:28;86.50;;;59.67;;
31224;SDS011;17847;31.524;74.366;2023-11-21T06:03:00;88.47;;;58.30;;
31224;SDS011;17847;31.524;74.366;2023-11-21T06:05:30;85.13;;;58.45;;
31224;SDS011;17847;31.524;74.366;2023-11-21T06:08:00;85.82;;;56.72;;
31224;SDS011;17847;31.524;74.366;2023-11-21T06:10:30;94.85;;;65.63;;
31224;SDS011;17847;31.524;74.366;2023-11-21T06:13:00;97.57;;;67.95;;
31224;SDS011;17847;31.524;74.366;2023-11-21T06:15:30;99.57;;;69.85;;
31224;SDS011;17847;31.524;74.366;2023-11-21T06:18:00;93.63;;;64.35;;
31224;SDS011;17847;31.524;74.366;2023-11-21T06:20:29;91.22;;;65.30;;
31224;SDS011;17847;31.524;74.366;2023-11-21T06:22:59;82.70;;;58.35;;
31224;SDS011;17847;31.524;74.366;2023-11-21T06:25:32;73.95;;;54.78;;
31224;SDS011;17847;31.524;74.366;2023-11-21T06:28:04;69.22;;;52.90;;
31224;SDS011;17847;31.524;74.366;2023-11-21T06:30:33;69.22;;;51.40;;
31224;SDS011;17847;31.524;74.366;2023-11-21T06:33:03;71.35;;;51.55;;
31224;SDS011;17847;31.524;74.366;2023-11-21T06:35:32;69.22;;;51.42;;
31224;SDS011;17847;31.524;74.366;2023-11-21T06:38:03;76.30;;;52.58;;
31224;SDS011;17847;31.524;74.366;2023-11-21T06:40:33;74.72;;;55.40;;
31224;SDS011;17847;31.524;74.366;2023-11-21T06:43:02;76.35;;;55.65;;
31224;SDS011;17847;31.524;74.366;2023-11-21T06:45:33;78.35;;;55.78;;
31224;SDS011;17847;31.524;74.366;2023-11-21T06:48:03;73.28;;;54.88;;
31224;SDS011;17847;31.524;74.366;2023-11-21T06:50:32;75.07;;;56.40;;
31224;SDS011;17847;31.524;74.366;2023-11-21T06:53:02;75.95;;;58.45;;
31224;SDS011;17847;31.524;74.366;2023-11-21T06:55:32;88.60;;;59.15;;
31224;SDS011;17847;31.524;74.366;2023-11-21T06:58:02;79.38;;;61.53;;
31224;SDS011;17847;31.524;74.366;2023-11-21T07:00:31;94.07;;;64.13;;
31224;SDS011;17847;31.524;74.366;2023-11-21T07:03:01;88.60;;;64.55;;
31224;SDS011;17847;31.524;74.366;2023-11-21T07:05:30;86.05;;;63.60;;
31224;SDS011;17847;31.524;74.366;2023-11-21T07:08:00;97.78;;;64.20;;
31224;SDS011;17847;31.524;74.366;2023-11-21T07:10:33;96.65;;;66.72;;
31224;SDS011;17847;31.524;74.366;2023-11-21T07:13:03;95.22;;;66.07;;
31224;SDS011;17847;31.524;74.366;2023-11-21T07:15:32;99.75;;;68.43;;
31224;SDS011;17847;31.524;74.366;2023-11-21T07:18:02;96.88;;;67.55;;
31224;SDS011;17847;31.524;74.366;2023-11-21T07:20:31;96.88;;;68.72;;
31224;SDS011;17847;31.524;74.366;2023-11-21T07:23:01;101.53;;;69.07;;
31224;SDS011;17847;31.524;74.366;2023-11-21T07:25:32;100.72;;;63.72;;
31224;SDS011;17847;31.524;74.366;2023-11-21T07:28:04;98.50;;;63.10;;
31224;SDS011;17847;31.524;74.366;2023-11-21T07:30:34;89.30;;;63.30;;
31224;SDS011;17847;31.524;74.366;2023-11-21T07:33:03;91.85;;;66.15;;
31224;SDS011;17847;31.524;74.366;2023-11-21T07:35:33;89.20;;;64.70;;
31224;SDS011;17847;31.524;74.366;2023-11-21T07:38:03;92.05;;;61.15;;
31224;SDS011;17847;31.524;74.366;2023-11-21T07:40:32;90.43;;;65.30;;
31224;SDS011;17847;31.524;74.366;2023-11-21T07:43:02;91.15;;;64.03;;
31224;SDS011;17847;31.524;74.366;2023-11-21T07:45:31;90.00;;;64.65;;
31224;SDS011;17847;31.524;74.366;2023-11-21T07:48:01;89.50;;;68.25;;
31224;SDS011;17847;31.524;74.366;2023-11-21T07:50:32;97.20;;;69.03;;
31224;SDS011;17847;31.524;74.366;2023-11-21T07:53:01;105.93;;;69.80;;
31224;SDS011;17847;31.524;74.366;2023-11-21T07:55:34;93.13;;;65.03;;
31224;SDS011;17847;31.524;74.366;2023-11-21T07:58:04;89.43;;;64.90;;
31224;SDS011;17847;31.524;74.366;2023-11-21T08:00:33;91.93;;;65.47;;
31224;SDS011;17847;31.524;74.366;2023-11-21T08:03:03;97.22;;;67.53;;
31224;SDS011;17847;31.524;74.366;2023-11-21T08:05:32;84.47;;;63.88;;
31224;SDS011;17847;31.524;74.366;2023-11-21T08:08:04;85.03;;;61.72;;
31224;SDS011;17847;31.524;74.366;2023-11-21T08:10:33;80.10;;;61.22;;
31224;SDS011;17847;31.524;74.366;2023-11-21T08:13:05;87.00;;;59.30;;
31224;SDS011;17847;31.524;74.366;2023-11-21T08:15:37;84.25;;;59.35;;
31224;SDS011;17847;31.524;74.366;2023-11-21T08:18:06;82.68;;;59.05;;
31224;SDS011;17847;31.524;74.366;2023-11-21T08:20:36;86.95;;;62.42;;
31224;SDS011;17847;31.524;74.366;2023-11-21T08:23:08;81.00;;;60.92;;
31224;SDS011;17847;31.524;74.366;2023-11-21T08:25:37;75.60;;;57.22;;
31224;SDS011;17847;31.524;74.366;2023-11-21T08:28:07;85.18;;;60.67;;
31224;SDS011;17847;31.524;74.366;2023-11-21T08:30:36;79.35;;;56.35;;
31224;SDS011;17847;31.524;74.366;2023-11-21T08:33:06;75.65;;;56.88;;
31224;SDS011;17847;31.524;74.366;2023-11-21T08:35:37;75.00;;;55.45;;
31224;SDS011;17847;31.524;74.366;2023-11-21T08:38:07;71.35;;;52.50;;
31224;SDS011;17847;31.524;74.366;2023-11-21T08:40:38;67.80;;;53.13;;
31224;SDS011;17847;31.524;74.366;2023-11-21T08:43:08;70.53;;;52.50;;
31224;SDS011;17847;31.524;74.366;2023-11-21T08:45:37;73.32;;;54.08;;
31224;SDS011;17847;31.524;74.366;2023-11-21T08:48:06;68.57;;;52.20;;
31224;SDS011;17847;31.524;74.366;2023-11-21T08:50:36;66.68;;;52.95;;
31224;SDS011;17847;31.524;74.366;2023-11-21T08:53:06;74.43;;;55.58;;
31224;SDS011;17847;31.524;74.366;2023-11-21T08:55:35;77.30;;;54.72;;
31224;SDS011;17847;31.524;74.366;2023-11-21T08:58:05;71.35;;;52.53;;
31224;SDS011;17847;31.524;74.366;2023-11-21T09:00:35;69.65;;;53.78;;
31224;SDS011;17847;31.524;74.366;2023-11-21T09:03:04;69.93;;;51.85;;
31224;SDS011;17847;31.524;74.366;2023-11-21T09:05:40;68.97;;;52.45;;
31224;SDS011;17847;31.524;74.366;2023-11-21T09:08:09;72.43;;;51.83;;
31224;SDS011;17847;31.524;74.366;2023-11-21T09:10:40;65.53;;;51.53;;
31224;SDS011;17847;31.524;74.366;2023-11-21T09:13:11;64.35;;;50.83;;
31224;SDS011;17847;31.524;74.366;2023-11-21T09:15:41;69.22;;;51.88;;
31224;SDS011;17847;31.524;74.366;2023-11-21T09:18:14;68.88;;;50.90;;
31224;SDS011;17847;31.524;74.366;2023-11-21T09:20:44;68.22;;;50.65;;
31224;SDS011;17847;31.524;74.366;2023-11-21T09:23:13;62.55;;;48.72;;
31224;SDS011;17847;31.524;74.366;2023-11-21T09:25:43;61.00;;;48.63;;
31224;SDS011;17847;31.524;74.366;2023-11-21T09:28:14;65.97;;;49.42;;
31224;SDS011;17847;31.524;74.366;2023-11-21T09:30:45;63.85;;;48.88;;
31224;SDS011;17847;31.524;74.366;2023-11-21T09:33:15;64.68;;;49.90;;
31224;SDS011;17847;31.524;74.366;2023-11-21T09:35:44;65.38;;;47.95;;
31224;SDS011;17847;31.524;74.366;2023-11-21T09:38:15;64.55;;;50.33;;
31224;SDS011;17847;31.524;74.366;2023-11-21T09:40:45;62.85;;;48.58;;
31224;SDS011;17847;31.524;74.366;2023-11-21T09:43:17;68.03;;;48.55;;
31224;SDS011;17847;31.524;74.366;2023-11-21T09:45:51;64.00;;;48.33;;
31224;SDS011;17847;31.524;74.366;2023-11-21T09:48:28;63.33;;;46.90;;
31224;SDS011;17847;31.524;74.366;2023-11-21T09:50:59;65.30;;;47.50;;
31224;SDS011;17847;31.524;74.366;2023-11-21T09:53:31;62.67;;;46.37;;
31224;SDS011;17847;31.524;74.366;2023-11-21T09:56:03;66.28;;;47.30;;
31224;SDS011;17847;31.524;74.366;2023-11-21T09:58:33;65.68;;;48.97;;
31224;SDS011;17847;31.524;74.366;2023-11-21T10:01:03;65.10;;;48.80;;
31224;SDS011;17847;31.524;74.366;2023-11-21T10:03:35;60.17;;;48.53;;
31224;SDS011;17847;31.524;74.366;2023-11-21T10:06:07;60.50;;;48.42;;
31224;SDS011;17847;31.524;74.366;2023-11-21T10:08:38;63.90;;;48.63;;
31224;SDS011;17847;31.524;74.366;2023-11-21T10:11:13;64.03;;;46.90;;
31224;SDS011;17847;31.524;74.366;2023-11-21T10:13:46;58.08;;;45.15;;
31224;SDS011;17847;31.524;74.366;2023-11-21T10:16:16;61.90;;;46.58;;
31224;SDS011;17847;31.524;74.366;2023-11-21T10:18:52;64.47;;;46.40;;
31224;SDS011;17847;31.524;74.366;2023-11-21T10:21:35;58.92;;;44.13;;
31224;SDS011;17847;31.524;74.366;2023-11-21T10:24:05;53.28;;;41.92;;
31224;SDS011;17847;31.524;74.366;2023-11-21T10:26:35;62.67;;;41.92;;
31224;SDS011;17847;31.524;74.366;2023-11-21T10:29:14;54.35;;;42.42;;
31224;SDS011;17847;31.524;74.366;2023-11-21T10:31:48;57.22;;;42.13;;
31224;SDS011;17847;31.524;74.366;2023-11-21T10:34:23;62.40;;;44.08;;
31224;SDS011;17847;31.524;74.366;2023-11-21T10:36:52;56.17;;;42.33;;
31224;SDS011;17847;31.524;74.366;2023-11-21T10:39:22;52.03;;;40.85;;
31224;SDS011;17847;31.524;74.366;2023-11-21T10:41:51;60.10;;;43.17;;
31224;SDS011;17847;31.524;74.366;2023-11-21T10:44:23;61.63;;;43.83;;
31224;SDS011;17847;31.524;74.366;2023-11-21T10:46:54;53.95;;;41.78;;
31224;SDS011;17847;31.524;74.366;2023-11-21T10:49:29;57.45;;;43.45;;
31224;SDS011;17847;31.524;74.366;2023-11-21T10:51:59;60.15;;;46.40;;
31224;SDS011;17847;31.524;74.366;2023-11-21T10:54:29;64.35;;;45.90;;
31224;SDS011;17847;31.524;74.366;2023-11-21T10:56:59;60.47;;;45.47;;
31224;SDS011;17847;31.524;74.366;2023-11-21T10:59:30;57.75;;;44.28;;
31224;SDS011;17847;31.524;74.366;2023-11-21T11:02:01;62.33;;;45.60;;
31224;SDS011;17847;31.524;74.366;2023-11-21T11:04:38;66.05;;;45.05;;
31224;SDS011;17847;31.524;74.366;2023-11-21T11:07:09;64.03;;;45.72;;
31224;SDS011;17847;31.524;74.366;2023-11-21T11:09:42;60.08;;;45.70;;
31224;SDS011;17847;31.524;74.366;2023-11-21T11:12:13;61.05;;;43.55;;
31224;SDS011;17847;31.524;74.366;2023-11-21T11:14:43;64.07;;;42.72;;
31224;SDS011;17847;31.524;74.366;2023-11-21T11:17:13;58.13;;;43.13;;
31224;SDS011;17847;31.524;74.366;2023-11-21T11:19:43;65.68;;;46.08;;
31224;SDS011;17847;31.524;74.366;2023-11-21T11:22:17;62.60;;;44.83;;
31224;SDS011;17847;31.524;74.366;2023-11-21T11:27:54;58.55;;;43.67;;
31224;SDS011;17847;31.524;74.366;2023-11-21T11:36:40;62.88;;;44.17;;
31224;SDS011;17847;31.524;74.366;2023-11-21T11:39:28;62.08;;;44.53;;
31224;SDS011;17847;31.524;74.366;2023-11-21T11:42:01;62.95;;;47.80;;
31224;SDS011;17847;31.524;74.366;2023-11-21T11:47:25;64.20;;;45.20;;
31224;SDS011;17847;31.524;74.366;2023-11-21T11:52:47;74.18;;;50.33;;
31224;SDS011;17847;31.524;74.366;2023-11-21T11:55:21;69.07;;;49.90;;
31224;SDS011;17847;31.524;74.366;2023-11-21T11:57:54;65.50;;;47.20;;
31224;SDS011;17847;31.524;74.366;2023-11-21T12:03:02;68.72;;;50.55;;
31224;SDS011;17847;31.524;74.366;2023-11-21T12:05:33;75.10;;;52.85;;
31224;SDS011;17847;31.524;74.366;2023-11-21T12:08:13;73.55;;;51.55;;
31224;SDS011;17847;31.524;74.366;2023-11-21T12:10:45;85.75;;;53.97;;
31224;SDS011;17847;31.524;74.366;2023-11-21T12:13:17;76.65;;;52.38;;
31224;SDS011;17847;31.524;74.366;2023-11-21T12:15:47;84.35;;;52.10;;
31224;SDS011;17847;31.524;74.366;2023-11-21T12:18:16;82.45;;;52.38;;
31224;SDS011;17847;31.524;74.366;2023-11-21T12:20:46;78.97;;;53.30;;
31224;SDS011;17847;31.524;74.366;2023-11-21T12:23:18;94.07;;;57.97;;
31224;SDS011;17847;31.524;74.366;2023-11-21T12:25:49;90.78;;;56.60;;
31224;SDS011;17847;31.524;74.366;2023-11-21T12:28:19;84.43;;;55.85;;
31224;SDS011;17847;31.524;74.366;2023-11-21T12:30:51;89.78;;;58.83;;
31224;SDS011;17847;31.524;74.366;2023-11-21T12:33:31;100.00;;;59.70;;
31224;SDS011;17847;31.524;74.366;2023-11-21T12:36:00;86.05;;;59.22;;
31224;SDS011;17847;31.524;74.366;2023-11-21T12:38:35;96.43;;;67.35;;
31224;SDS011;17847;31.524;74.366;2023-11-21T12:41:05;110.75;;;80.22;;
31224;SDS011;17847;31.524;74.366;2023-11-21T12:43:38;120.10;;;89.35;;
31224;SDS011;17847;31.524;74.366;2023-11-21T12:46:08;105.60;;;76.70;;
31224;SDS011;17847;31.524;74.366;2023-11-21T12:48:42;95.20;;;64.88;;
31224;SDS011;17847;31.524;74.366;2023-11-21T12:51:14;91.25;;;63.72;;
31224;SDS011;17847;31.524;74.366;2023-11-21T12:53:44;100.93;;;64.40;;
31224;SDS011;17847;31.524;74.366;2023-11-21T12:56:15;87.95;;;58.10;;
31224;SDS011;17847;31.524;74.366;2023-11-21T12:58:46;90.88;;;58.58;;
31224;SDS011;17847;31.524;74.366;2023-11-21T13:01:20;84.60;;;60.08;;
31224;SDS011;17847;31.524;74.366;2023-11-21T13:03:51;100.95;;;59.33;;
31224;SDS011;17847;31.524;74.366;2023-11-21T13:06:20;87.72;;;58.63;;
31224;SDS011;17847;31.524;74.366;2023-11-21T13:08:56;101.47;;;61.72;;
31224;SDS011;17847;31.524;74.366;2023-11-21T13:11:27;102.82;;;62.67;;
31224;SDS011;17847;31.524;74.366;2023-11-21T13:14:00;95.32;;;62.50;;
31224;SDS011;17847;31.524;74.366;2023-11-21T13:16:32;96.55;;;62.85;;
31224;SDS011;17847;31.524;74.366;2023-11-21T13:19:01;103.45;;;64.95;;
31224;SDS011;17847;31.524;74.366;2023-11-21T13:21:31;96.43;;;60.20;;
31224;SDS011;17847;31.524;74.366;2023-11-21T13:24:02;93.15;;;59.70;;
31224;SDS011;17847;31.524;74.366;2023-11-21T13:26:32;95.28;;;59.30;;
31224;SDS011;17847;31.524;74.366;2023-11-21T13:29:02;87.97;;;60.38;;
31224;SDS011;17847;31.524;74.366;2023-11-21T13:31:33;101.82;;;59.50;;
31224;SDS011;17847;31.524;74.366;2023-11-21T13:34:05;93.93;;;59.83;;
31224;SDS011;17847;31.524;74.366;2023-11-21T13:36:36;91.45;;;60.53;;
31224;SDS011;17847;31.524;74.366;2023-11-21T13:39:06;110.05;;;69.35;;
31224;SDS011;17847;31.524;74.366;2023-11-21T13:41:44;102.70;;;63.92;;
31224;SDS011;17847;31.524;74.366;2023-11-21T13:44:19;94.28;;;62.78;;
31224;SDS011;17847;31.524;74.366;2023-11-21T13:47:06;102.68;;;61.60;;
31224;SDS011;17847;31.524;74.366;2023-11-21T13:49:35;96.05;;;60.83;;
31224;SDS011;17847;31.524;74.366;2023-11-21T13:52:09;98.88;;;62.05;;
31224;SDS011;17847;31.524;74.366;2023-11-21T13:54:44;93.40;;;62.20;;
31224;SDS011;17847;31.524;74.366;2023-11-21T13:57:13;94.82;;;63.65;;
31224;SDS011;17847;31.524;74.366;2023-11-21T13:59:43;95.50;;;65.43;;
31224;SDS011;17847;31.524;74.366;2023-11-21T14:02:12;97.20;;;63.20;;
31224;SDS011;17847;31.524;74.366;2023-11-21T14:04:47;95.20;;;64.90;;
31224;SDS011;17847;31.524;74.366;2023-11-21T14:07:29;90.63;;;65.18;;
31224;SDS011;17847;31.524;74.366;2023-11-21T14:10:04;95.93;;;66.43;;
31224;SDS011;17847;31.524;74.366;2023-11-21T14:12:42;110.47;;;69.80;;
31224;SDS011;17847;31.524;74.366;2023-11-21T14:15:12;99.05;;;70.80;;
31224;SDS011;17847;31.524;74.366;2023-11-21T14:17:45;110.45;;;72.90;;
31224;SDS011;17847;31.524;74.366;2023-11-21T14:20:14;103.82;;;71.82;;
31224;SDS011;17847;31.524;74.366;2023-11-21T14:22:44;99.93;;;68.40;;
31224;SDS011;17847;31.524;74.366;2023-11-21T14:25:15;99.15;;;67.30;;
31224;SDS011;17847;31.524;74.366;2023-11-21T14:27:45;119.35;;;70.78;;
31224;SDS011;17847;31.524;74.366;2023-11-21T14:30:15;103.50;;;69.95;;
31224;SDS011;17847;31.524;74.366;2023-11-21T14:32:47;109.55;;;71.15;;
31224;SDS011;17847;31.524;74.366;2023-11-21T14:35:17;105.45;;;71.63;;
31224;SDS011;17847;31.524;74.366;2023-11-21T14:37:47;110.97;;;70.32;;
31224;SDS011;17847;31.524;74.366;2023-11-21T14:40:17;108.10;;;71.90;;